createdAt,value
2019-01-13T00:00:11.994Z,968.53
2019-01-13T00:01:04.628Z,968.77
2019-01-13T00:02:04.702Z,968.56
2019-01-13T00:03:05.015Z,968.61
2019-01-13T00:04:04.947Z,968.67
2019-01-13T00:05:05.049Z,968.70
2019-01-13T00:06:05.154Z,968.56
2019-01-13T00:07:05.376Z,968.61
2019-01-13T00:08:04.499Z,968.64
2019-01-13T00:09:04.623Z,968.64
2019-01-13T00:10:05.261Z,968.53
2019-01-13T00:11:05.483Z,968.61
2019-01-13T00:12:05.533Z,968.67
2019-01-13T00:13:05.296Z,968.56
2019-01-13T00:14:04.593Z,968.64
2019-01-13T00:15:04.876Z,968.58
2019-01-13T00:16:05.040Z,968.61
2019-01-13T00:17:05.087Z,968.56
2019-01-13T00:18:05.389Z,968.53
2019-01-13T00:19:05.134Z,968.53
2019-01-13T00:20:05.520Z,968.44
2019-01-13T00:21:04.958Z,968.50
2019-01-13T00:22:05.492Z,968.53
2019-01-13T00:23:04.995Z,968.39
2019-01-13T00:24:05.463Z,968.50
2019-01-13T00:25:04.594Z,968.42
2019-01-13T00:26:04.663Z,968.50
2019-01-13T00:27:04.943Z,968.53
2019-01-13T00:28:04.989Z,968.50
2019-01-13T00:29:05.046Z,968.50
2019-01-13T00:30:05.140Z,968.64
2019-01-13T00:31:05.133Z,968.61
2019-01-13T00:32:10.499Z,968.50
2019-01-13T00:33:05.004Z,968.53
2019-01-13T00:34:04.962Z,968.55
2019-01-13T00:35:05.557Z,968.44
2019-01-13T00:36:04.931Z,968.58
2019-01-13T00:37:05.014Z,968.53
2019-01-13T00:38:05.158Z,968.50
2019-01-13T00:39:04.518Z,968.64
2019-01-13T00:40:04.794Z,968.30
2019-01-13T00:41:05.099Z,968.55
2019-01-13T00:42:04.811Z,968.44
2019-01-13T00:43:05.055Z,968.44
2019-01-13T00:44:05.238Z,968.67
2019-01-13T00:45:05.131Z,968.61
2019-01-13T00:46:04.513Z,968.55
2019-01-13T00:47:04.740Z,968.47
2019-01-13T00:48:04.951Z,968.53
2019-01-13T00:49:04.596Z,968.67
2019-01-13T00:50:05.119Z,968.67
2019-01-13T00:51:05.380Z,968.55
2019-01-13T00:52:04.632Z,968.50
2019-01-13T00:53:04.625Z,968.67
2019-01-13T00:54:04.776Z,968.64
2019-01-13T00:55:04.948Z,968.55
2019-01-13T00:56:04.891Z,968.61
2019-01-13T00:57:05.046Z,968.55
2019-01-13T00:58:05.099Z,968.64
2019-01-13T00:59:05.186Z,968.74
2019-01-13T01:00:04.751Z,968.69
2019-01-13T01:01:05.358Z,968.74
2019-01-13T01:02:05.433Z,968.77
2019-01-13T01:03:05.406Z,968.82
2019-01-13T01:04:04.527Z,968.82
2019-01-13T01:05:04.750Z,968.77
2019-01-13T01:06:04.697Z,968.91
2019-01-13T01:07:04.770Z,968.91
2019-01-13T01:08:04.877Z,968.82
2019-01-13T01:09:04.961Z,968.71
2019-01-13T01:10:05.573Z,968.76
2019-01-13T01:11:05.483Z,968.90
2019-01-13T01:12:05.486Z,968.82
2019-01-13T01:13:04.749Z,968.90
2019-01-13T01:14:04.715Z,969.01
2019-01-13T01:15:05.300Z,968.88
2019-01-13T01:16:04.883Z,968.90
2019-01-13T01:17:05.142Z,968.96
2019-01-13T01:18:05.263Z,968.90
2019-01-13T01:19:05.302Z,968.96
2019-01-13T01:20:05.444Z,968.90
2019-01-13T01:21:04.644Z,968.96
2019-01-13T01:22:04.748Z,968.98
2019-01-13T01:23:05.271Z,969.04
2019-01-13T01:24:04.703Z,969.04
2019-01-13T01:25:04.958Z,968.96
2019-01-13T01:26:05.016Z,969.04
2019-01-13T01:27:04.686Z,968.93
2019-01-13T01:28:04.770Z,968.96
2019-01-13T01:29:10.229Z,968.90
2019-01-13T01:30:04.575Z,968.96
2019-01-13T01:31:05.182Z,968.96
2019-01-13T01:32:04.705Z,968.76
2019-01-13T01:33:04.970Z,968.79
2019-01-13T01:34:04.989Z,968.90
2019-01-13T01:35:05.136Z,968.87
2019-01-13T01:36:05.140Z,968.96
2019-01-13T01:37:05.389Z,968.93
2019-01-13T01:38:04.549Z,968.87
2019-01-13T01:39:04.694Z,968.98
2019-01-13T01:40:04.755Z,968.90
2019-01-13T01:41:04.986Z,968.84
2019-01-13T01:42:05.101Z,968.84
2019-01-13T01:43:05.058Z,968.81
2019-01-13T01:44:05.155Z,968.84
2019-01-13T01:45:04.587Z,968.87
2019-01-13T01:46:04.805Z,968.81
2019-01-13T01:47:05.171Z,968.65
2019-01-13T01:48:05.116Z,968.76
2019-01-13T01:49:04.511Z,968.81
2019-01-13T01:50:04.703Z,968.73
2019-01-13T01:51:04.847Z,968.84
2019-01-13T01:52:05.437Z,968.78
2019-01-13T01:53:04.748Z,968.81
2019-01-13T01:54:05.319Z,969.06
2019-01-13T01:55:04.665Z,968.89
2019-01-13T01:56:05.139Z,968.87
2019-01-13T01:57:05.128Z,968.84
2019-01-13T01:58:05.132Z,968.87
2019-01-13T01:59:05.657Z,968.81
2019-01-13T02:00:04.539Z,968.84
2019-01-13T02:01:04.648Z,968.78
2019-01-13T02:02:04.663Z,968.95
2019-01-13T02:03:04.850Z,968.75
2019-01-13T02:04:04.879Z,968.71
2019-01-13T02:05:05.357Z,968.86
2019-01-13T02:06:04.697Z,968.73
2019-01-13T02:07:04.759Z,968.84
2019-01-13T02:08:04.904Z,968.72
2019-01-13T02:09:04.897Z,968.81
2019-01-13T02:10:05.119Z,968.71
2019-01-13T02:11:05.102Z,968.68
2019-01-13T02:12:05.489Z,968.65
2019-01-13T02:13:05.583Z,968.71
2019-01-13T02:14:04.595Z,968.89
2019-01-13T02:15:04.736Z,968.68
2019-01-13T02:16:05.428Z,968.75
2019-01-13T02:17:05.370Z,968.75
2019-01-13T02:18:05.479Z,968.75
2019-01-13T02:19:05.008Z,968.78
2019-01-13T02:20:05.038Z,968.72
2019-01-13T02:21:05.443Z,968.65
2019-01-13T02:22:04.536Z,968.78
2019-01-13T02:23:05.107Z,968.78
2019-01-13T02:24:05.195Z,968.70
2019-01-13T02:25:05.269Z,968.78
2019-01-13T02:26:05.113Z,968.68
2019-01-13T02:27:05.195Z,968.97
2019-01-13T02:28:04.654Z,968.86
2019-01-13T02:29:10.305Z,968.86
2019-01-13T02:30:04.784Z,968.86
2019-01-13T02:31:05.315Z,968.97
2019-01-13T02:32:05.340Z,968.92
2019-01-13T02:33:04.864Z,968.72
2019-01-13T02:34:05.157Z,968.83
2019-01-13T02:35:05.496Z,968.78
2019-01-13T02:36:05.237Z,968.86
2019-01-13T02:37:04.626Z,968.71
2019-01-13T02:38:05.106Z,968.75
2019-01-13T02:39:04.666Z,968.72
2019-01-13T02:40:04.921Z,968.78
2019-01-13T02:41:04.859Z,968.78
2019-01-13T02:42:05.101Z,968.72
2019-01-13T02:43:05.350Z,968.81
2019-01-13T02:44:04.900Z,968.72
2019-01-13T02:45:04.904Z,968.78
2019-01-13T02:46:05.395Z,968.72
2019-01-13T02:47:04.562Z,968.72
2019-01-13T02:48:04.623Z,968.72
2019-01-13T02:49:05.120Z,968.68
2019-01-13T02:50:05.173Z,968.62
2019-01-13T02:51:04.744Z,968.51
2019-01-13T02:52:04.912Z,968.75
2019-01-13T02:53:05.308Z,968.70
2019-01-13T02:54:05.531Z,968.75
2019-01-13T02:55:05.492Z,968.62
2019-01-13T02:56:04.538Z,968.65
2019-01-13T02:57:05.100Z,968.65
2019-01-13T02:58:05.354Z,968.59
2019-01-13T02:59:05.432Z,968.59
2019-01-13T03:00:05.292Z,968.59
2019-01-13T03:01:05.478Z,968.75
2019-01-13T03:02:04.461Z,968.59
2019-01-13T03:03:05.152Z,968.62
2019-01-13T03:04:04.647Z,968.64
2019-01-13T03:05:04.802Z,968.62
2019-01-13T03:06:04.930Z,968.72
2019-01-13T03:07:05.105Z,968.59
2019-01-13T03:08:05.043Z,968.50
2019-01-13T03:09:05.057Z,968.83
2019-01-13T03:10:04.587Z,968.64
2019-01-13T03:11:04.712Z,968.56
2019-01-13T03:12:05.069Z,968.61
2019-01-13T03:13:05.018Z,968.72
2019-01-13T03:14:05.091Z,968.64
2019-01-13T03:15:04.744Z,968.53
2019-01-13T03:16:04.759Z,968.56
2019-01-13T03:17:05.487Z,968.70
2019-01-13T03:18:05.496Z,968.47
2019-01-13T03:19:04.616Z,968.64
2019-01-13T03:20:04.829Z,968.70
2019-01-13T03:21:05.234Z,968.50
2019-01-13T03:22:05.225Z,968.61
2019-01-13T03:23:05.003Z,968.64
2019-01-13T03:24:04.989Z,968.58
2019-01-13T03:25:04.562Z,968.67
2019-01-13T03:26:04.649Z,968.70
2019-01-13T03:27:04.655Z,968.77
2019-01-13T03:28:05.044Z,968.64
2019-01-13T03:29:05.125Z,968.70
2019-01-13T03:30:04.751Z,968.67
2019-01-13T03:31:12.922Z,968.80
2019-01-13T03:32:05.520Z,968.67
2019-01-13T03:33:04.710Z,968.69
2019-01-13T03:34:04.879Z,968.69
2019-01-13T03:35:05.899Z,968.64
2019-01-13T03:36:04.897Z,968.61
2019-01-13T03:37:05.121Z,968.66
2019-01-13T03:38:04.527Z,968.61
2019-01-13T03:39:04.853Z,968.64
2019-01-13T03:40:10.193Z,968.47
2019-01-13T03:41:05.044Z,968.61
2019-01-13T03:42:04.631Z,968.52
2019-01-13T03:43:04.728Z,968.55
2019-01-13T03:44:04.914Z,968.52
2019-01-13T03:45:05.007Z,968.55
2019-01-13T03:46:05.092Z,968.38
2019-01-13T03:47:05.384Z,968.39
2019-01-13T03:48:04.658Z,968.38
2019-01-13T03:49:04.599Z,968.36
2019-01-13T03:50:04.729Z,968.30
2019-01-13T03:51:04.755Z,968.36
2019-01-13T03:52:04.868Z,968.22
2019-01-13T03:53:05.011Z,968.33
2019-01-13T03:54:05.387Z,968.30
2019-01-13T03:55:04.640Z,968.28
2019-01-13T03:56:04.904Z,968.39
2019-01-13T03:57:04.857Z,968.36
2019-01-13T03:58:05.315Z,968.44
2019-01-13T03:59:04.912Z,968.53
2019-01-13T04:00:04.647Z,968.28
2019-01-13T04:01:05.259Z,968.39
2019-01-13T04:02:05.306Z,968.42
2019-01-13T04:03:04.709Z,968.47
2019-01-13T04:04:04.700Z,968.39
2019-01-13T04:05:04.660Z,968.36
2019-01-13T04:06:05.217Z,968.42
2019-01-13T04:07:04.978Z,968.53
2019-01-13T04:08:05.169Z,968.47
2019-01-13T04:09:05.166Z,968.39
2019-01-13T04:10:05.266Z,968.36
2019-01-13T04:11:05.310Z,968.22
2019-01-13T04:12:04.903Z,968.25
2019-01-13T04:13:05.280Z,968.11
2019-01-13T04:14:05.370Z,968.25
2019-01-13T04:15:04.997Z,968.25
2019-01-13T04:16:05.496Z,968.08
2019-01-13T04:17:05.523Z,968.28
2019-01-13T04:18:04.749Z,968.11
2019-01-13T04:19:04.631Z,968.22
2019-01-13T04:20:05.022Z,968.22
2019-01-13T04:21:05.509Z,968.11
2019-01-13T04:22:05.013Z,968.00
2019-01-13T04:23:05.257Z,968.25
2019-01-13T04:24:05.327Z,968.05
2019-01-13T04:25:05.437Z,968.00
2019-01-13T04:26:05.522Z,968.14
2019-01-13T04:27:04.755Z,968.08
2019-01-13T04:28:04.988Z,968.11
2019-01-13T04:29:05.136Z,968.19
2019-01-13T04:30:05.122Z,968.08
2019-01-13T04:31:05.397Z,968.13
2019-01-13T04:32:05.351Z,968.08
2019-01-13T04:33:04.962Z,968.25
2019-01-13T04:34:05.353Z,968.11
2019-01-13T04:35:04.775Z,968.22
2019-01-13T04:36:04.820Z,968.16
2019-01-13T04:37:04.560Z,968.11
2019-01-13T04:38:05.135Z,968.13
2019-01-13T04:39:05.178Z,968.30
2019-01-13T04:40:05.263Z,967.94
2019-01-13T04:41:04.964Z,968.19
2019-01-13T04:42:05.421Z,968.16
2019-01-13T04:43:05.525Z,968.22
2019-01-13T04:44:04.552Z,968.27
2019-01-13T04:45:04.677Z,968.30
2019-01-13T04:46:04.906Z,968.08
2019-01-13T04:47:05.071Z,968.19
2019-01-13T04:48:10.565Z,968.19
2019-01-13T04:49:04.989Z,968.10
2019-01-13T04:50:05.106Z,968.27
2019-01-13T04:51:04.694Z,968.13
2019-01-13T04:52:05.051Z,968.18
2019-01-13T04:53:05.087Z,968.05
2019-01-13T04:54:05.230Z,967.96
2019-01-13T04:55:05.344Z,968.02
2019-01-13T04:56:05.419Z,967.96
2019-01-13T04:57:04.843Z,967.96
2019-01-13T04:58:04.915Z,967.90
2019-01-13T04:59:05.184Z,967.90
2019-01-13T05:00:05.270Z,967.93
2019-01-13T05:01:04.671Z,967.90
2019-01-13T05:02:05.020Z,967.82
2019-01-13T05:03:04.668Z,967.87
2019-01-13T05:04:05.083Z,967.73
2019-01-13T05:05:05.542Z,968.04
2019-01-13T05:06:04.835Z,967.82
2019-01-13T05:07:04.753Z,967.93
2019-01-13T05:08:09.916Z,967.96
2019-01-13T05:09:05.320Z,967.85
2019-01-13T05:10:04.546Z,967.90
2019-01-13T05:11:04.756Z,967.96
2019-01-13T05:12:04.830Z,967.96
2019-01-13T05:13:04.923Z,967.87
2019-01-13T05:14:05.074Z,967.93
2019-01-13T05:15:04.582Z,967.93
2019-01-13T05:16:04.924Z,967.90
2019-01-13T05:17:05.587Z,967.93
2019-01-13T05:18:04.614Z,967.87
2019-01-13T05:19:05.082Z,967.81
2019-01-13T05:20:04.952Z,967.81
2019-01-13T05:21:05.061Z,967.87
2019-01-13T05:22:05.238Z,967.78
2019-01-13T05:23:04.748Z,967.76
2019-01-13T05:24:04.680Z,967.70
2019-01-13T05:25:05.831Z,967.81
2019-01-13T05:26:04.931Z,967.70
2019-01-13T05:27:04.960Z,967.78
2019-01-13T05:28:05.202Z,967.61
2019-01-13T05:29:10.474Z,967.67
2019-01-13T05:30:04.875Z,967.75
2019-01-13T05:31:05.158Z,967.64
2019-01-13T05:32:05.532Z,967.84
2019-01-13T05:33:05.431Z,967.86
2019-01-13T05:34:04.711Z,967.72
2019-01-13T05:35:04.675Z,967.81
2019-01-13T05:36:04.726Z,967.72
2019-01-13T05:37:05.383Z,967.67
2019-01-13T05:38:04.563Z,967.69
2019-01-13T05:39:05.136Z,967.67
2019-01-13T05:40:05.128Z,967.58
2019-01-13T05:41:05.429Z,967.55
2019-01-13T05:42:04.980Z,967.67
2019-01-13T05:43:05.055Z,967.55
2019-01-13T05:44:05.348Z,967.64
2019-01-13T05:45:04.529Z,967.55
2019-01-13T05:46:04.746Z,967.50
2019-01-13T05:47:05.695Z,967.58
2019-01-13T05:48:04.658Z,967.44
2019-01-13T05:49:04.926Z,967.64
2019-01-13T05:50:05.152Z,967.53
2019-01-13T05:51:04.809Z,967.75
2019-01-13T05:52:04.868Z,967.64
2019-01-13T05:53:04.876Z,967.56
2019-01-13T05:54:05.412Z,967.50
2019-01-13T05:55:04.863Z,967.56
2019-01-13T05:56:04.804Z,967.61
2019-01-13T05:57:04.908Z,967.47
2019-01-13T05:58:05.232Z,967.53
2019-01-13T05:59:05.480Z,967.47
2019-01-13T06:00:04.744Z,967.50
2019-01-13T06:01:04.997Z,967.44
2019-01-13T06:02:05.319Z,967.42
2019-01-13T06:03:05.179Z,967.39
2019-01-13T06:04:05.198Z,967.34
2019-01-13T06:05:04.643Z,967.58
2019-01-13T06:06:04.757Z,967.50
2019-01-13T06:07:04.749Z,967.44
2019-01-13T06:08:04.886Z,967.41
2019-01-13T06:09:05.194Z,967.47
2019-01-13T06:10:04.755Z,967.41
2019-01-13T06:11:05.211Z,967.39
2019-01-13T06:12:04.764Z,967.41
2019-01-13T06:13:04.824Z,967.52
2019-01-13T06:14:04.805Z,967.41
2019-01-13T06:15:04.963Z,967.36
2019-01-13T06:16:05.025Z,967.44
2019-01-13T06:17:05.487Z,967.63
2019-01-13T06:18:04.736Z,967.47
2019-01-13T06:19:04.684Z,967.44
2019-01-13T06:20:04.735Z,967.58
2019-01-13T06:21:04.888Z,967.58
2019-01-13T06:22:05.182Z,967.58
2019-01-13T06:23:05.263Z,967.49
2019-01-13T06:24:05.488Z,967.47
2019-01-13T06:25:04.762Z,967.44
2019-01-13T06:26:05.377Z,967.30
2019-01-13T06:27:05.591Z,967.41
2019-01-13T06:28:04.869Z,967.33
2019-01-13T06:29:05.001Z,967.33
2019-01-13T06:30:05.023Z,967.41
2019-01-13T06:31:10.074Z,967.25
2019-01-13T06:32:05.586Z,967.22
2019-01-13T06:33:04.640Z,967.36
2019-01-13T06:34:05.136Z,967.22
2019-01-13T06:35:05.283Z,967.28
2019-01-13T06:36:04.900Z,967.14
2019-01-13T06:37:05.036Z,967.19
2019-01-13T06:38:06.684Z,967.17
2019-01-13T06:39:05.321Z,967.31
2019-01-13T06:40:05.475Z,967.11
2019-01-13T06:41:04.587Z,967.28
2019-01-13T06:42:05.086Z,967.17
2019-01-13T06:43:05.031Z,967.11
2019-01-13T06:44:05.164Z,967.20
2019-01-13T06:45:05.399Z,967.25
2019-01-13T06:46:04.689Z,967.22
2019-01-13T06:47:05.097Z,967.22
2019-01-13T06:48:05.121Z,967.17
2019-01-13T06:49:05.524Z,967.20
2019-01-13T06:50:04.832Z,967.28
2019-01-13T06:51:10.425Z,967.11
2019-01-13T06:52:04.790Z,967.22
2019-01-13T06:53:04.906Z,967.14
2019-01-13T06:54:05.158Z,967.14
2019-01-13T06:55:04.706Z,967.20
2019-01-13T06:56:05.284Z,967.28
2019-01-13T06:57:05.354Z,967.17
2019-01-13T06:58:04.949Z,967.22
2019-01-13T06:59:05.349Z,967.14
2019-01-13T07:00:04.748Z,967.25
2019-01-13T07:01:05.501Z,967.16
2019-01-13T07:02:04.890Z,967.17
2019-01-13T07:03:05.117Z,967.28
2019-01-13T07:04:05.200Z,967.28
2019-01-13T07:05:05.269Z,967.14
2019-01-13T07:06:04.729Z,967.22
2019-01-13T07:07:04.829Z,967.22
2019-01-13T07:08:05.034Z,967.03
2019-01-13T07:09:05.094Z,967.05
2019-01-13T07:10:05.212Z,966.98
2019-01-13T07:11:05.239Z,967.01
2019-01-13T07:12:05.316Z,967.01
2019-01-13T07:13:05.391Z,967.03
2019-01-13T07:14:05.413Z,966.95
2019-01-13T07:15:05.467Z,967.01
2019-01-13T07:16:05.192Z,966.90
2019-01-13T07:17:05.304Z,967.05
2019-01-13T07:18:05.535Z,967.03
2019-01-13T07:19:04.754Z,967.05
2019-01-13T07:20:04.789Z,966.95
2019-01-13T07:21:04.985Z,967.01
2019-01-13T07:22:05.028Z,967.14
2019-01-13T07:23:04.534Z,967.11
2019-01-13T07:24:04.873Z,967.01
2019-01-13T07:25:05.271Z,967.14
2019-01-13T07:26:04.780Z,967.11
2019-01-13T07:27:04.873Z,967.03
2019-01-13T07:28:04.920Z,967.03
2019-01-13T07:29:10.384Z,966.98
2019-01-13T07:30:04.775Z,966.96
2019-01-13T07:31:05.292Z,966.93
2019-01-13T07:32:11.188Z,967.03
2019-01-13T07:33:04.942Z,967.01
2019-01-13T07:34:04.940Z,966.90
2019-01-13T07:35:04.961Z,966.90
2019-01-13T07:36:04.706Z,966.79
2019-01-13T07:37:04.717Z,966.96
2019-01-13T07:38:04.938Z,966.82
2019-01-13T07:39:04.952Z,966.84
2019-01-13T07:40:04.946Z,966.84
2019-01-13T07:41:05.149Z,966.87
2019-01-13T07:42:05.132Z,966.84
2019-01-13T07:43:05.500Z,966.84
2019-01-13T07:44:04.570Z,966.87
2019-01-13T07:45:04.726Z,966.96
2019-01-13T07:46:04.787Z,966.84
2019-01-13T07:47:05.514Z,966.84
2019-01-13T07:48:04.579Z,966.79
2019-01-13T07:49:05.085Z,966.84
2019-01-13T07:50:05.125Z,966.90
2019-01-13T07:51:05.397Z,966.87
2019-01-13T07:52:05.512Z,966.78
2019-01-13T07:53:04.702Z,966.84
2019-01-13T07:54:04.788Z,966.76
2019-01-13T07:55:05.339Z,966.73
2019-01-13T07:56:04.991Z,966.78
2019-01-13T07:57:05.106Z,966.87
2019-01-13T07:58:05.490Z,966.84
2019-01-13T07:59:05.143Z,966.75
2019-01-13T08:00:05.226Z,966.61
2019-01-13T08:01:04.654Z,966.64
2019-01-13T08:02:04.740Z,966.70
2019-01-13T08:03:04.850Z,966.86
2019-01-13T08:04:05.119Z,966.81
2019-01-13T08:05:05.021Z,966.69
2019-01-13T08:06:04.770Z,966.64
2019-01-13T08:07:05.279Z,966.72
2019-01-13T08:08:05.478Z,966.81
2019-01-13T08:09:04.643Z,966.72
2019-01-13T08:10:04.770Z,966.72
2019-01-13T08:11:05.214Z,966.58
2019-01-13T08:12:05.372Z,966.50
2019-01-13T08:13:04.981Z,966.58
2019-01-13T08:14:05.170Z,966.50
2019-01-13T08:15:04.688Z,966.50
2019-01-13T08:16:04.735Z,966.69
2019-01-13T08:17:04.756Z,966.55
2019-01-13T08:18:05.020Z,966.56
2019-01-13T08:19:05.146Z,966.47
2019-01-13T08:20:04.496Z,966.61
2019-01-13T08:21:05.226Z,966.44
2019-01-13T08:22:05.250Z,966.44
2019-01-13T08:23:04.726Z,966.58
2019-01-13T08:24:04.727Z,966.52
2019-01-13T08:25:04.730Z,966.55
2019-01-13T08:26:05.342Z,966.52
2019-01-13T08:27:05.095Z,966.47
2019-01-13T08:28:04.617Z,966.58
2019-01-13T08:29:04.656Z,966.47
2019-01-13T08:30:05.412Z,966.55
2019-01-13T08:31:05.467Z,966.33
2019-01-13T08:32:05.444Z,966.44
2019-01-13T08:33:04.530Z,966.38
2019-01-13T08:34:04.650Z,966.41
2019-01-13T08:35:04.809Z,966.46
2019-01-13T08:36:05.328Z,966.43
2019-01-13T08:37:05.480Z,966.38
2019-01-13T08:38:05.547Z,966.43
2019-01-13T08:39:05.642Z,966.35
2019-01-13T08:40:04.622Z,966.32
2019-01-13T08:41:04.765Z,966.34
2019-01-13T08:42:04.830Z,966.26
2019-01-13T08:43:05.059Z,966.32
2019-01-13T08:44:04.994Z,966.23
2019-01-13T08:45:05.376Z,966.06
2019-01-13T08:46:05.001Z,966.06
2019-01-13T08:47:10.139Z,966.09
2019-01-13T08:48:04.582Z,966.15
2019-01-13T08:49:04.673Z,966.03
2019-01-13T08:50:04.653Z,966.15
2019-01-13T08:51:04.626Z,965.95
2019-01-13T08:52:04.761Z,965.86
2019-01-13T08:53:04.829Z,965.84
2019-01-13T08:54:05.138Z,965.84
2019-01-13T08:55:04.650Z,965.70
2019-01-13T08:56:05.137Z,965.92
2019-01-13T08:57:04.578Z,965.70
2019-01-13T08:58:05.316Z,965.86
2019-01-13T08:59:04.654Z,965.97
2019-01-13T09:00:04.882Z,965.66
2019-01-13T09:01:05.138Z,965.66
2019-01-13T09:02:05.460Z,965.78
2019-01-13T09:03:04.987Z,965.75
2019-01-13T09:04:05.225Z,965.61
2019-01-13T09:05:04.669Z,965.77
2019-01-13T09:06:04.991Z,965.45
2019-01-13T09:07:05.123Z,965.63
2019-01-13T09:08:05.172Z,965.63
2019-01-13T09:09:05.412Z,965.47
2019-01-13T09:10:04.942Z,965.58
2019-01-13T09:11:04.989Z,965.50
2019-01-13T09:12:04.982Z,965.44
2019-01-13T09:13:05.199Z,965.58
2019-01-13T09:14:05.303Z,965.52
2019-01-13T09:15:05.228Z,965.30
2019-01-13T09:16:05.423Z,965.44
2019-01-13T09:17:05.392Z,965.41
2019-01-13T09:18:04.593Z,965.47
2019-01-13T09:19:04.770Z,965.38
2019-01-13T09:20:04.924Z,965.44
2019-01-13T09:21:05.055Z,965.43
2019-01-13T09:22:05.354Z,965.49
2019-01-13T09:23:05.599Z,965.40
2019-01-13T09:24:05.128Z,965.32
2019-01-13T09:25:05.162Z,965.35
2019-01-13T09:26:05.192Z,965.46
2019-01-13T09:27:04.916Z,965.37
2019-01-13T09:28:04.922Z,965.34
2019-01-13T09:29:09.824Z,965.26
2019-01-13T09:30:05.253Z,965.23
2019-01-13T09:31:04.796Z,965.39
2019-01-13T09:32:04.969Z,965.36
2019-01-13T09:33:06.026Z,965.22
2019-01-13T09:34:04.665Z,965.36
2019-01-13T09:35:05.297Z,965.11
2019-01-13T09:36:05.375Z,965.19
2019-01-13T09:37:04.716Z,965.28
2019-01-13T09:38:06.476Z,965.22
2019-01-13T09:39:05.557Z,965.11
2019-01-13T09:40:04.688Z,965.17
2019-01-13T09:41:04.848Z,965.25
2019-01-13T09:42:05.357Z,965.13
2019-01-13T09:43:05.169Z,965.11
2019-01-13T09:44:05.091Z,965.08
2019-01-13T09:45:05.459Z,964.97
2019-01-13T09:46:04.978Z,965.13
2019-01-13T09:47:06.123Z,965.11
2019-01-13T09:48:05.159Z,964.94
2019-01-13T09:49:05.295Z,965.08
2019-01-13T09:50:05.226Z,964.91
2019-01-13T09:51:06.078Z,964.94
2019-01-13T09:52:05.116Z,964.99
2019-01-13T09:53:05.398Z,964.94
2019-01-13T09:54:04.925Z,964.96
2019-01-13T09:55:05.225Z,964.85
2019-01-13T09:56:04.833Z,964.66
2019-01-13T09:57:05.350Z,964.72
2019-01-13T09:58:04.662Z,964.63
2019-01-13T09:59:04.942Z,964.69
2019-01-13T10:00:05.340Z,964.85
2019-01-13T10:01:05.268Z,964.63
2019-01-13T10:02:04.791Z,964.69
2019-01-13T10:03:05.252Z,964.61
2019-01-13T10:04:05.468Z,964.49
2019-01-13T10:05:05.449Z,964.66
2019-01-13T10:06:04.636Z,964.55
2019-01-13T10:07:05.208Z,964.46
2019-01-13T10:08:04.606Z,964.44
2019-01-13T10:09:04.683Z,964.29
2019-01-13T10:10:04.863Z,964.49
2019-01-13T10:11:04.996Z,964.30
2019-01-13T10:12:05.550Z,964.13
2019-01-13T10:13:04.710Z,964.24
2019-01-13T10:14:05.060Z,964.30
2019-01-13T10:15:05.142Z,964.35
2019-01-13T10:16:05.400Z,964.38
2019-01-13T10:17:05.334Z,964.15
2019-01-13T10:18:04.830Z,963.96
2019-01-13T10:19:04.916Z,964.10
2019-01-13T10:20:04.892Z,964.04
2019-01-13T10:21:04.998Z,963.90
2019-01-13T10:22:05.210Z,963.77
2019-01-13T10:23:05.209Z,963.98
2019-01-13T10:24:05.487Z,963.90
2019-01-13T10:25:04.668Z,963.77
2019-01-13T10:26:05.095Z,963.68
2019-01-13T10:27:05.517Z,963.82
2019-01-13T10:28:04.895Z,963.76
2019-01-13T10:29:10.576Z,963.74
2019-01-13T10:30:04.990Z,963.68
2019-01-13T10:31:05.490Z,963.51
2019-01-13T10:32:04.716Z,963.45
2019-01-13T10:33:04.675Z,963.48
2019-01-13T10:34:05.144Z,963.48
2019-01-13T10:35:04.685Z,963.34
2019-01-13T10:36:04.986Z,963.45
2019-01-13T10:37:04.995Z,963.48
2019-01-13T10:38:05.215Z,963.34
2019-01-13T10:39:05.297Z,963.26
2019-01-13T10:40:04.602Z,963.20
2019-01-13T10:41:04.852Z,963.20
2019-01-13T10:42:04.689Z,963.08
2019-01-13T10:43:04.736Z,963.25
2019-01-13T10:44:05.480Z,963.11
2019-01-13T10:45:04.843Z,963.06
2019-01-13T10:46:04.996Z,963.11
2019-01-13T10:47:05.043Z,963.11
2019-01-13T10:48:05.171Z,963.05
2019-01-13T10:49:05.217Z,962.97
2019-01-13T10:50:05.178Z,963.02
2019-01-13T10:51:05.237Z,962.94
2019-01-13T10:52:05.400Z,962.91
2019-01-13T10:53:04.563Z,962.91
2019-01-13T10:54:09.618Z,962.88
2019-01-13T10:55:05.172Z,962.91
2019-01-13T10:56:05.679Z,962.94
2019-01-13T10:57:04.658Z,962.96
2019-01-13T10:58:04.807Z,962.91
2019-01-13T10:59:04.945Z,962.74
2019-01-13T11:00:05.228Z,962.85
2019-01-13T11:01:05.078Z,962.79
2019-01-13T11:02:05.193Z,962.85
2019-01-13T11:03:05.838Z,962.71
2019-01-13T11:04:04.697Z,962.65
2019-01-13T11:05:04.923Z,962.62
2019-01-13T11:06:04.904Z,962.54
2019-01-13T11:07:04.935Z,962.48
2019-01-13T11:08:12.145Z,962.54
2019-01-13T11:09:04.714Z,962.46
2019-01-13T11:10:04.781Z,962.53
2019-01-13T11:11:05.351Z,962.53
2019-01-13T11:12:05.671Z,962.59
2019-01-13T11:13:05.098Z,962.48
2019-01-13T11:14:05.514Z,962.50
2019-01-13T11:15:04.669Z,962.37
2019-01-13T11:16:04.957Z,962.37
2019-01-13T11:17:05.091Z,962.35
2019-01-13T11:18:05.380Z,962.37
2019-01-13T11:19:05.147Z,962.32
2019-01-13T11:20:05.527Z,962.32
2019-01-13T11:21:04.558Z,962.29
2019-01-13T11:22:04.675Z,962.32
2019-01-13T11:23:05.157Z,962.20
2019-01-13T11:24:05.409Z,962.13
2019-01-13T11:25:05.385Z,962.20
2019-01-13T11:26:04.589Z,962.04
2019-01-13T11:27:04.598Z,962.13
2019-01-13T11:28:04.878Z,962.23
2019-01-13T11:29:10.020Z,962.15
2019-01-13T11:30:05.558Z,962.15
2019-01-13T11:31:04.576Z,962.04
2019-01-13T11:32:04.884Z,961.99
2019-01-13T11:33:10.063Z,961.96
2019-01-13T11:34:04.908Z,962.01
2019-01-13T11:35:05.598Z,961.87
2019-01-13T11:36:05.002Z,961.81
2019-01-13T11:37:05.198Z,961.84
2019-01-13T11:38:04.608Z,961.87
2019-01-13T11:39:05.120Z,961.79
2019-01-13T11:40:04.489Z,961.93
2019-01-13T11:41:04.937Z,961.87
2019-01-13T11:42:04.994Z,961.64
2019-01-13T11:43:05.508Z,961.78
2019-01-13T11:44:04.614Z,961.67
2019-01-13T11:45:04.692Z,961.59
2019-01-13T11:46:04.837Z,961.62
2019-01-13T11:47:04.996Z,961.56
2019-01-13T11:48:04.620Z,961.45
2019-01-13T11:49:05.002Z,961.45
2019-01-13T11:50:04.637Z,961.45
2019-01-13T11:51:04.850Z,961.47
2019-01-13T11:52:04.864Z,961.28
2019-01-13T11:53:05.191Z,961.44
2019-01-13T11:54:05.418Z,961.33
2019-01-13T11:55:09.629Z,961.42
2019-01-13T11:56:05.119Z,961.39
2019-01-13T11:57:05.228Z,961.44
2019-01-13T11:58:04.825Z,961.36
2019-01-13T11:59:05.002Z,961.16
2019-01-13T12:00:04.989Z,961.38
2019-01-13T12:01:05.022Z,961.24
2019-01-13T12:02:04.669Z,961.24
2019-01-13T12:03:07.356Z,961.16
2019-01-13T12:04:04.909Z,961.05
2019-01-13T12:05:04.898Z,961.02
2019-01-13T12:06:05.439Z,961.10
2019-01-13T12:07:05.490Z,961.10
2019-01-13T12:08:05.194Z,960.99
2019-01-13T12:09:04.795Z,960.87
2019-01-13T12:10:05.083Z,960.87
2019-01-13T12:11:04.964Z,960.84
2019-01-13T12:12:05.065Z,961.12
2019-01-13T12:13:05.236Z,960.82
2019-01-13T12:14:05.610Z,960.90
2019-01-13T12:15:04.921Z,961.01
2019-01-13T12:16:04.976Z,960.84
2019-01-13T12:17:05.470Z,960.84
2019-01-13T12:18:04.709Z,960.87
2019-01-13T12:19:05.279Z,960.87
2019-01-13T12:20:05.507Z,960.65
2019-01-13T12:21:04.900Z,960.84
2019-01-13T12:22:04.934Z,960.68
2019-01-13T12:23:05.126Z,960.78
2019-01-13T12:24:04.547Z,960.78
2019-01-13T12:25:04.980Z,960.70
2019-01-13T12:26:04.988Z,960.73
2019-01-13T12:27:05.307Z,960.62
2019-01-13T12:28:05.455Z,960.67